Time;durP1;ratioP1;P1;durP2;ratioP2;P2;SDS_P1;SDS_P2;PMS_P1;PMS_P2;Temp;Humidity;BMP_temperature;BMP_pressure;BME280_temperature;BME280_humidity;BME280_pressure;Samples;Min_cycle;Max_cycle;Signal;HPM_P1;HPM_P2
2021/08/10 00:00:41;;;;;;;5.43;2.00;;;;;;;25.49;39.02;100224.31;4899727;29;20073;-77
2021/08/10 00:03:08;;;;;;;3.55;1.90;;;;;;;25.39;39.21;100226.34;4899833;29;20140;-78
2021/08/10 00:05:35;;;;;;;4.03;2.10;;;;;;;25.43;40.36;100222.34;4899879;29;20066;-77
2021/08/10 00:08:02;;;;;;;5.88;2.40;;;;;;;25.23;39.17;100227.25;4899004;29;20040;-78
2021/08/10 00:10:30;;;;;;;4.32;2.00;;;;;;;25.25;39.49;100225.25;4898629;29;20130;-78
2021/08/10 00:12:56;;;;;;;3.40;2.10;;;;;;;25.18;39.68;100223.44;4899396;29;20440;-76
2021/08/10 00:15:23;;;;;;;2.95;2.20;;;;;;;25.22;39.51;100232.75;4899742;29;20092;-78
2021/08/10 00:17:50;;;;;;;5.68;2.10;;;;;;;24.87;40.55;100229.47;4899029;29;20045;-77
2021/08/10 00:20:17;;;;;;;3.30;1.80;;;;;;;24.82;40.46;100234.47;4899068;29;20055;-79
2021/08/10 00:22:44;;;;;;;5.05;2.08;;;;;;;24.76;40.81;100229.81;4898967;29;20519;-78
2021/08/10 00:25:11;;;;;;;9.18;2.72;;;;;;;25.10;40.34;100232.28;4898203;29;20100;-78
2021/08/10 00:27:37;;;;;;;2.67;1.92;;;;;;;25.12;39.65;100230.28;4899032;29;20104;-78
2021/08/10 00:30:05;;;;;;;3.58;2.65;;;;;;;25.08;39.69;100234.28;4899093;29;20097;-77
2021/08/10 00:32:32;;;;;;;7.07;2.40;;;;;;;24.81;40.23;100230.16;4899192;29;20083;-78
2021/08/10 00:34:58;;;;;;;2.50;1.85;;;;;;;24.80;41.61;100239.16;4897685;29;20045;-78
2021/08/10 00:37:25;;;;;;;7.50;2.30;;;;;;;24.75;40.87;100236.16;4897818;29;20051;-78
2021/08/10 00:39:52;;;;;;;5.18;2.55;;;;;;;24.81;40.77;100240.81;4898497;29;20531;-78
2021/08/10 00:42:19;;;;;;;5.90;1.67;;;;;;;24.86;40.42;100241.13;4897515;29;20143;-78
2021/08/10 00:44:46;;;;;;;4.78;2.20;;;;;;;24.93;40.76;100247.47;4879922;29;20064;-78
2021/08/10 00:47:15;;;;;;;5.32;2.25;;;;;;;24.89;41.10;100256.81;4893942;29;20056;-78
2021/08/10 00:49:42;;;;;;;5.53;2.28;;;;;;;24.97;40.53;100259.44;4897320;29;20045;-77
2021/08/10 00:52:10;;;;;;;6.20;2.25;;;;;;;25.02;41.09;100257.09;4897557;29;20407;-78
2021/08/10 00:54:38;;;;;;;3.78;2.17;;;;;;;25.05;40.76;100251.44;4897221;29;20052;-78
2021/08/10 00:57:08;;;;;;;3.35;1.95;;;;;;;25.05;40.30;100251.44;4897123;29;20041;-78
2021/08/10 00:59:38;;;;;;;3.65;2.00;;;;;;;24.94;39.86;100249.13;4897292;29;20514;-78
2021/08/10 01:02:06;;;;;;;4.18;2.40;;;;;;;24.95;40.63;100250.78;4896748;29;20052;-79
2021/08/10 01:04:35;;;;;;;2.35;2.15;;;;;;;24.97;40.05;100246.13;4897143;29;20079;-78
2021/08/10 01:07:13;;;;;;;2.55;2.10;;;;;;;24.84;39.71;100245.81;4896954;29;20053;-79
2021/08/10 01:10:11;;;;;;;5.57;1.85;;;;;;;24.77;39.44;100237.66;4891339;29;20476;-80
2021/08/10 01:13:10;;;;;;;5.63;2.00;;;;;;;24.87;40.61;100240.13;4898203;29;20045;-79
2021/08/10 01:15:45;;;;;;;3.38;1.90;;;;;;;24.89;39.67;100239.97;4897156;29;20052;-78
2021/08/10 01:18:30;;;;;;;5.10;2.30;;;;;;;24.72;39.29;100236.50;4895997;29;20072;-79
2021/08/10 01:21:18;;;;;;;4.93;2.08;;;;;;;24.69;39.44;100226.16;4897187;29;20075;-78
2021/08/10 01:24:11;;;;;;;2.65;2.20;;;;;;;24.75;39.71;100239.66;4896577;29;20109;-78
2021/08/10 01:26:44;;;;;;;2.95;1.80;;;;;;;24.70;40.11;100230.50;4897162;29;20076;-78
2021/08/10 01:29:17;;;;;;;2.67;2.20;;;;;;;24.66;40.59;100234.50;4896655;29;20484;-78
2021/08/10 01:31:46;;;;;;;;;;;;;;;24.49;40.73;100231.84;4897070;29;20131;-77
2021/08/10 01:34:31;;;;;;;2.35;1.98;;;;;;;24.44;41.17;100242.16;4896650;29;19927;-77
2021/08/10 01:37:22;;;;;;;4.50;2.20;;;;;;;24.50;41.02;100254.84;4897983;29;20420;-78
2021/08/10 01:39:55;;;;;;;5.72;2.10;;;;;;;24.49;41.42;100263.81;4896458;29;20048;-78
2021/08/10 01:42:26;;;;;;;;;;;;;;;24.49;41.94;100260.31;4897159;29;20056;-78
2021/08/10 01:45:00;;;;;;;3.08;2.75;;;;;;;24.54;41.78;100260.66;4896187;29;19923;-78
2021/08/10 01:47:31;;;;;;;3.85;2.47;;;;;;;24.57;41.70;100252.34;4896979;29;20131;-79
2021/08/10 01:50:01;;;;;;;6.65;2.33;;;;;;;24.66;41.65;100250.47;4896568;29;20044;-79
2021/08/10 01:52:29;;;;;;;2.40;1.80;;;;;;;24.66;40.57;100258.47;4896842;29;20415;-79
2021/08/10 01:55:04;;;;;;;4.68;2.10;;;;;;;24.56;40.04;100251.50;4896162;29;20056;-80
2021/08/10 01:57:36;;;;;;;2.33;1.88;;;;;;;24.60;40.89;100256.50;4896528;29;20049;-79
2021/08/10 02:00:05;;;;;;;1.98;1.73;;;;;;;24.50;40.58;100276.16;4896310;29;20108;-79
2021/08/10 02:02:40;;;;;;;2.78;1.95;;;;;;;24.51;39.72;100264.50;4897508;29;20045;-79
2021/08/10 02:05:23;;;;;;;2.85;2.00;;;;;;;24.64;39.49;100273.81;4897466;29;20048;-80
2021/08/10 02:07:54;;;;;;;3.05;2.08;;;;;;;24.63;39.49;100266.81;4897233;29;20131;-78
2021/08/10 02:10:21;;;;;;;4.10;2.33;;;;;;;24.48;38.86;100275.47;4896496;29;20053;-79
2021/08/10 02:12:50;;;;;;;5.13;2.42;;;;;;;24.45;38.81;100275.81;4897518;29;20059;-79
2021/08/10 02:15:18;;;;;;;2.72;2.10;;;;;;;24.68;41.67;100276.00;4896137;29;20048;-78
2021/08/10 02:17:53;;;;;;;5.13;2.20;;;;;;;24.67;42.75;100268.16;4895916;29;20048;-76
2021/08/10 02:20:36;;;;;;;10.32;2.42;;;;;;;24.74;41.65;100269.16;4896502;29;20124;-78
2021/08/10 02:23:05;;;;;;;9.35;2.75;;;;;;;24.61;42.77;100253.69;4896004;29;20063;-79
2021/08/10 02:25:37;;;;;;;3.35;2.00;;;;;;;24.47;42.13;100255.16;4895918;29;20053;-79
2021/08/10 02:28:08;;;;;;;;;;;;;;;23.96;42.89;100267.69;4896065;29;20045;-78
2021/08/10 02:30:39;;;;;;;9.68;3.60;;;;;;;24.09;43.40;100263.75;4882248;29;20014;-80
2021/08/10 02:33:09;;;;;;;4.93;3.20;;;;;;;24.13;44.35;100263.28;4899770;29;20048;-80
2021/08/10 02:35:45;;;;;;;6.63;2.97;;;;;;;23.73;44.01;100266.66;4901651;29;20077;-78
2021/08/10 02:38:17;;;;;;;4.80;2.83;;;;;;;23.32;45.13;100265.59;4905681;29;20131;-80
2021/08/10 02:40:50;;;;;;;8.88;2.88;;;;;;;23.18;45.31;100262.53;4899684;29;20048;-80
2021/08/10 02:43:17;;;;;;;5.60;2.65;;;;;;;23.14;45.80;100255.03;4899635;29;20518;-80
2021/08/10 02:45:47;;;;;;;8.35;2.40;;;;;;;23.22;45.71;100257.72;4899606;29;20104;-79
2021/08/10 02:48:16;;;;;;;5.72;3.35;;;;;;;23.09;45.83;100257.34;4899461;29;20075;-80
2021/08/10 02:50:45;;;;;;;4.63;2.30;;;;;;;22.98;46.98;100253.94;4899586;29;20492;-77
2021/08/10 02:53:12;;;;;;;5.72;2.55;;;;;;;22.75;46.81;100258.09;4899774;29;20049;-79
2021/08/10 02:55:45;;;;;;;2.75;1.95;;;;;;;22.66;46.92;100262.50;4900690;29;20055;-79
2021/08/10 02:58:19;;;;;;;2.22;2.03;;;;;;;22.30;47.97;100264.31;4899781;29;20136;-80
2021/08/10 03:00:57;;;;;;;5.25;2.55;;;;;;;22.42;46.88;100254.31;4899076;29;20060;-80
2021/08/10 03:03:27;;;;;;;5.35;2.10;;;;;;;22.68;45.87;100262.31;4899361;29;20055;-79
2021/08/10 03:05:57;;;;;;;5.13;2.22;;;;;;;22.80;45.43;100258.44;4898916;29;20100;-81
2021/08/10 03:08:30;;;;;;;4.85;2.58;;;;;;;22.92;44.96;100265.22;4900903;29;20052;-80
2021/08/10 03:10:57;;;;;;;2.20;1.83;;;;;;;22.73;45.59;100255.56;4900069;29;20051;-80
2021/08/10 03:13:29;;;;;;;2.55;2.35;;;;;;;22.81;45.50;100257.47;4899102;29;20052;-80
2021/08/10 03:15:57;;;;;;;2.72;1.92;;;;;;;23.02;44.41;100254.47;4899543;29;20055;-80
2021/08/10 03:18:31;;;;;;;3.65;2.47;;;;;;;23.29;42.79;100253.47;4896329;29;20123;-80
2021/08/10 03:21:02;;;;;;;4.78;2.13;;;;;;;23.36;43.60;100266.94;4899201;29;20148;-80
2021/08/10 03:23:34;;;;;;;3.55;2.60;;;;;;;23.03;45.22;100273.91;4898900;29;20074;-80
2021/08/10 03:26:03;;;;;;;9.88;3.13;;;;;;;22.76;46.54;100270.38;4899155;29;20139;-78
2021/08/10 03:28:33;;;;;;;3.92;1.95;;;;;;;22.69;46.89;100270.16;4898550;29;20052;-79
2021/08/10 03:31:01;;;;;;;2.42;2.10;;;;;;;22.83;46.65;100276.72;4900282;29;20052;-79
2021/08/10 03:33:29;;;;;;;6.55;2.70;;;;;;;22.81;46.86;100278.72;4898628;29;20044;-78
2021/08/10 03:35:58;;;;;;;4.78;2.20;;;;;;;22.83;47.13;100286.53;4898715;29;20081;-79
2021/08/10 03:38:29;;;;;;;5.70;2.65;;;;;;;22.73;46.40;100286.63;4898404;29;20041;-80
2021/08/10 03:40:56;;;;;;;5.47;2.83;;;;;;;22.62;46.76;100284.19;4898761;29;20136;-80
2021/08/10 03:43:25;;;;;;;7.72;2.00;;;;;;;22.90;46.08;100291.09;4897934;29;20057;-78
2021/08/10 03:45:53;;;;;;;3.50;2.13;;;;;;;22.65;45.89;100291.88;4898260;29;20063;-80
2021/08/10 03:48:22;;;;;;;2.88;2.38;;;;;;;22.48;46.41;100298.88;4898418;29;20048;-80
2021/08/10 03:50:53;;;;;;;4.75;2.33;;;;;;;22.66;44.84;100293.53;4898302;29;20052;-79
2021/08/10 03:53:21;;;;;;;2.92;2.00;;;;;;;22.91;43.84;100299.94;4898523;29;20049;-79
2021/08/10 03:55:50;;;;;;;4.20;2.53;;;;;;;23.12;43.19;100303.06;4898162;29;20127;-81
2021/08/10 03:58:29;;;;;;;5.00;2.75;;;;;;;23.17;43.16;100302.56;4898269;29;20120;-80
2021/08/10 04:00:57;;;;;;;2.88;2.13;;;;;;;23.26;43.54;100304.28;4897950;29;20140;-81
2021/08/10 04:03:30;;;;;;;3.38;2.13;;;;;;;23.07;42.92;100294.72;4899178;29;20044;-79
2021/08/10 04:06:00;;;;;;;2.95;2.25;;;;;;;23.11;43.12;100295.22;4897995;29;20051;-80
2021/08/10 04:08:29;;;;;;;3.22;2.25;;;;;;;22.90;43.89;100298.22;4898012;29;20044;-81
2021/08/10 04:10:57;;;;;;;3.03;2.22;;;;;;;22.79;44.45;100293.13;4897890;29;20582;-82
2021/08/10 04:13:30;;;;;;;4.15;2.60;;;;;;;22.81;44.48;100297.31;4898274;29;20060;-82
2021/08/10 04:16:00;;;;;;;2.40;2.20;;;;;;;22.79;44.08;100288.66;4898093;29;20075;-81
2021/08/10 04:18:34;;;;;;;2.67;2.28;;;;;;;22.81;44.48;100285.84;4897962;29;20132;-81
2021/08/10 04:21:01;;;;;;;4.13;3.47;;;;;;;22.82;44.91;100283.03;4898209;29;20059;-83
2021/08/10 04:23:28;;;;;;;7.57;2.53;;;;;;;22.80;44.60;100277.06;4897738;29;20045;-78
2021/08/10 04:25:56;;;;;;;6.13;3.05;;;;;;;22.84;44.02;100275.72;4892182;29;20045;-77
2021/08/10 04:28:23;;;;;;;4.93;2.58;;;;;;;22.79;43.82;100286.00;4893744;29;20040;-77
2021/08/10 04:30:50;;;;;;;3.10;2.22;;;;;;;22.79;44.01;100286.00;4891586;29;20040;-77
2021/08/10 04:33:17;;;;;;;7.70;3.85;;;;;;;22.71;44.61;100283.28;4890358;29;20047;-78
2021/08/10 04:35:47;;;;;;;6.25;2.47;;;;;;;22.63;45.01;100276.06;4889610;29;20380;-79
2021/08/10 04:38:16;;;;;;;5.75;3.03;;;;;;;22.66;45.03;100285.56;4891017;29;20076;-78
2021/08/10 04:40:45;;;;;;;5.78;2.42;;;;;;;22.79;44.37;100286.00;4890185;29;20045;-78
2021/08/10 04:43:11;;;;;;;4.90;2.80;;;;;;;22.91;44.01;100291.94;4888955;29;20045;-79
2021/08/10 04:45:43;;;;;;;4.18;2.50;;;;;;;22.94;44.18;100289.78;4887791;29;20048;-77
2021/08/10 04:48:10;;;;;;;8.43;3.25;;;;;;;22.80;44.89;100292.13;4890343;29;20048;-74
2021/08/10 04:50:38;;;;;;;5.70;2.33;;;;;;;22.85;45.08;100287.19;4890470;29;20075;-77
2021/08/10 04:53:07;;;;;;;3.92;2.58;;;;;;;22.82;45.13;100280.38;4883883;29;20045;-76
2021/08/10 04:55:37;;;;;;;6.80;3.08;;;;;;;22.72;45.88;100280.47;4888587;29;20041;-75
2021/08/10 04:58:04;;;;;;;6.50;2.88;;;;;;;22.80;45.70;100286.81;4889284;29;20105;-74
2021/08/10 05:00:32;;;;;;;3.95;2.10;;;;;;;23.02;45.32;100290.88;4890622;29;20132;-76
2021/08/10 05:03:02;;;;;;;4.13;2.75;;;;;;;23.00;45.22;100288.34;4887521;29;20120;-78
2021/08/10 05:05:30;;;;;;;5.38;2.00;;;;;;;23.05;45.05;100294.03;4890486;29;20049;-78
2021/08/10 05:07:59;;;;;;;6.13;2.88;;;;;;;23.00;45.25;100291.81;4887841;29;20107;-79
2021/08/10 05:10:26;;;;;;;2.30;2.00;;;;;;;22.88;45.49;100285.09;4890137;29;20108;-78
2021/08/10 05:12:55;;;;;;;3.28;2.08;;;;;;;22.94;45.87;100281.81;4887607;29;20073;-78
2021/08/10 05:15:25;;;;;;;3.97;2.20;;;;;;;23.03;45.06;100289.88;4890486;29;20056;-75
2021/08/10 05:17:51;;;;;;;3.60;2.67;;;;;;;23.16;44.65;100293.75;4889910;29;20556;-78
2021/08/10 05:20:23;;;;;;;5.60;2.75;;;;;;;23.24;44.19;100295.66;4888478;29;20049;-78
2021/08/10 05:22:50;;;;;;;4.82;2.40;;;;;;;23.37;44.18;100296.03;4891467;29;20124;-80
2021/08/10 05:25:23;;;;;;;7.18;3.85;;;;;;;23.31;43.78;100301.16;4878976;29;20063;-79
2021/08/10 05:27:52;;;;;;;2.72;2.10;;;;;;;23.42;44.00;100301.72;4892533;29;20480;-80
2021/08/10 05:30:19;;;;;;;4.70;2.00;;;;;;;23.50;44.17;100301.78;4892822;29;20044;-83
2021/08/10 05:32:46;;;;;;;5.18;2.22;;;;;;;23.61;43.87;100287.38;4895799;29;20047;-85
2021/08/10 05:35:26;;;;;;;4.13;2.20;;;;;;;23.85;42.44;100283.97;4895813;29;20404;-77
2021/08/10 05:37:52;;;;;;;6.07;2.70;;;;;;;23.88;41.72;100296.97;4897385;29;20040;-77
2021/08/10 05:40:20;;;;;;;5.72;2.88;;;;;;;24.08;41.09;100297.53;4893653;29;20416;-79
2021/08/10 05:42:48;;;;;;;3.83;2.53;;;;;;;24.18;40.54;100294.72;4891858;29;20072;-78
2021/08/10 05:45:16;;;;;;;5.90;2.28;;;;;;;24.28;40.41;100298.06;4894011;29;20049;-78
2021/08/10 05:47:43;;;;;;;5.72;2.40;;;;;;;24.39;40.57;100308.44;4894457;29;20037;-78
2021/08/10 05:50:10;;;;;;;2.60;2.40;;;;;;;24.53;40.87;100305.13;4893944;29;20071;-79
2021/08/10 05:52:37;;;;;;;5.30;2.53;;;;;;;24.52;40.79;100318.63;4895583;29;20056;-79
2021/08/10 05:55:04;;;;;;;4.20;2.63;;;;;;;24.80;40.25;100332.47;4894774;29;20063;-78
2021/08/10 05:57:31;;;;;;;6.30;3.45;;;;;;;24.92;40.18;100330.28;4894301;29;20040;-78
2021/08/10 05:59:59;;;;;;;3.13;1.95;;;;;;;24.97;39.61;100296.78;4895511;29;20103;-79
2021/08/10 06:02:27;;;;;;;4.38;2.22;;;;;;;25.28;40.53;100288.09;4893431;29;20072;-78
2021/08/10 06:04:55;;;;;;;11.02;3.80;;;;;;;25.48;39.52;100270.69;4894444;29;20143;-78
2021/08/10 06:07:27;;;;;;;2.40;2.00;;;;;;;25.60;39.47;100250.59;4895559;29;20044;-78
2021/08/10 06:09:55;;;;;;;6.50;2.40;;;;;;;25.59;39.57;100226.78;4896190;29;20084;-78
2021/08/10 06:12:22;;;;;;;4.50;2.30;;;;;;;25.67;39.20;100224.03;4896024;29;20045;-79
2021/08/10 06:14:51;;;;;;;6.05;2.65;;;;;;;25.97;38.42;100211.72;4896001;29;20100;-79
2021/08/10 06:17:18;;;;;;;10.98;2.60;;;;;;;26.07;41.26;100227.53;4897035;29;20111;-79
2021/08/10 06:19:46;;;;;;;8.43;2.95;;;;;;;26.03;41.98;100239.56;4896302;29;20044;-80
2021/08/10 06:22:16;;;;;;;5.75;2.60;;;;;;;25.91;42.10;100263.19;4895846;29;20047;-79
2021/08/10 06:24:43;;;;;;;5.70;2.15;;;;;;;26.04;41.93;100290.13;4897562;29;20111;-79
2021/08/10 06:27:11;;;;;;;4.72;3.25;;;;;;;26.18;41.40;100290.41;4904157;29;20076;-79
2021/08/10 06:29:40;;;;;;;10.20;2.75;;;;;;;25.99;42.20;100315.69;4903384;29;20067;-79
2021/08/10 06:32:08;;;;;;;8.75;3.00;;;;;;;25.89;42.83;100333.78;4898598;29;20060;-79
2021/08/10 06:34:35;;;;;;;4.15;2.70;;;;;;;25.81;42.65;100331.97;4900393;29;20079;-78
2021/08/10 06:37:03;;;;;;;5.22;2.38;;;;;;;26.05;42.05;100302.50;4896424;29;20123;-79
2021/08/10 06:39:34;;;;;;;4.07;2.95;;;;;;;26.17;39.43;100268.19;4895597;29;20048;-79
2021/08/10 06:42:03;;;;;;;4.05;2.47;;;;;;;26.24;40.56;100306.53;4897426;29;20036;-79
2021/08/10 06:44:34;;;;;;;11.85;3.50;;;;;;;25.64;42.76;100287.66;4880447;29;20056;-79
2021/08/10 06:47:01;;;;;;;6.13;2.45;;;;;;;25.68;42.48;100251.59;4896036;29;20075;-79
2021/08/10 06:49:31;;;;;;;6.15;2.80;;;;;;;25.38;43.55;100242.53;4895413;29;20518;-79
2021/08/10 06:51:59;;;;;;;5.93;2.33;;;;;;;25.42;43.88;100287.38;4895916;29;20104;-78
2021/08/10 06:54:27;;;;;;;10.60;3.45;;;;;;;25.42;44.47;100326.59;4895941;29;20504;-80
2021/08/10 06:56:55;;;;;;;4.13;3.50;;;;;;;25.63;43.64;100328.69;4895404;29;20148;-80
2021/08/10 06:59:24;;;;;;;11.25;3.30;;;;;;;25.28;44.67;100330.78;4895846;29;20466;-80
2021/08/10 07:01:53;;;;;;;11.55;3.20;;;;;;;25.45;44.85;100348.41;4895162;29;20084;-79
2021/08/10 07:04:20;;;;;;;9.93;3.40;;;;;;;25.29;45.12;100333.25;4895626;29;20496;-79
2021/08/10 07:06:47;;;;;;;5.50;3.15;;;;;;;25.74;43.64;100283.78;4896624;29;20441;-79
2021/08/10 07:09:17;;;;;;;5.28;3.38;;;;;;;25.82;43.04;100216.16;4897017;29;20052;-79
2021/08/10 07:11:48;;;;;;;4.32;2.95;;;;;;;25.68;44.09;100259.59;4895520;29;20104;-79
2021/08/10 07:14:16;;;;;;;6.90;2.38;;;;;;;25.53;43.39;100283.53;4878123;29;20060;-79
2021/08/10 07:16:45;;;;;;;4.68;3.03;;;;;;;25.66;42.79;100282.94;4876800;29;20041;-78
2021/08/10 07:19:13;;;;;;;10.63;3.47;;;;;;;25.54;43.15;100290.50;4880431;29;20041;-79
2021/08/10 07:21:42;;;;;;;7.75;3.38;;;;;;;25.65;43.04;100276.78;4880128;29;20065;-79
2021/08/10 07:24:16;;;;;;;9.02;3.53;;;;;;;25.73;42.48;100254.56;4895817;29;20525;-80
2021/08/10 07:26:44;;;;;;;6.43;3.45;;;;;;;25.86;41.62;100279.72;4881597;29;20045;-78
2021/08/10 07:29:11;;;;;;;11.65;3.03;;;;;;;25.57;41.68;100299.03;4879987;29;20392;-79
2021/08/10 07:31:38;;;;;;;5.45;2.17;;;;;;;25.61;40.67;100288.81;4881441;29;20523;-79
2021/08/10 07:34:10;;;;;;;6.10;2.63;;;;;;;25.53;40.64;100284.34;4898637;29;20052;-79
2021/08/10 07:36:39;;;;;;;3.85;2.30;;;;;;;25.68;40.33;100283.63;4899100;29;20044;-79
2021/08/10 07:39:06;;;;;;;6.05;2.47;;;;;;;25.90;40.15;100295.41;4898613;29;20381;-79
2021/08/10 07:41:33;;;;;;;4.53;2.20;;;;;;;25.80;39.68;100287.59;4898900;29;20040;-79
2021/08/10 07:44:06;;;;;;;8.45;2.85;;;;;;;25.89;38.77;100265.19;4899780;29;20353;-79
2021/08/10 07:46:38;;;;;;;3.67;2.50;;;;;;;25.74;38.60;100250.91;4898654;29;20127;-79
2021/08/10 07:49:06;;;;;;;10.60;2.92;;;;;;;25.75;38.77;100268.59;4898460;29;20048;-79
2021/08/10 07:51:33;;;;;;;3.72;2.47;;;;;;;25.67;39.02;100290.78;4902005;29;20041;-79
2021/08/10 07:54:00;;;;;;;4.68;2.70;;;;;;;26.03;38.67;100240.38;4900918;29;20151;-78
2021/08/10 07:56:27;;;;;;;3.33;2.55;;;;;;;26.08;38.46;100184.59;4898215;29;20139;-79
2021/08/10 07:58:54;;;;;;;9.50;2.47;;;;;;;26.02;39.04;100208.53;4898833;29;20552;-79
2021/08/10 08:01:21;;;;;;;6.05;2.88;;;;;;;25.59;39.96;100205.41;4899825;29;20048;-79
2021/08/10 08:03:48;;;;;;;4.93;2.50;;;;;;;25.69;39.79;100224.72;4907101;29;20083;-78
2021/08/10 08:06:16;;;;;;;6.13;2.38;;;;;;;25.83;39.25;100281.91;4897892;29;20055;-79
2021/08/10 08:08:42;;;;;;;5.05;2.10;;;;;;;25.63;39.78;100307.34;4899424;29;20044;-79
2021/08/10 08:11:14;;;;;;;3.15;2.33;;;;;;;25.95;39.50;100269.84;4897928;29;20488;-79
2021/08/10 08:13:41;;;;;;;2.10;1.90;;;;;;;25.93;39.40;100242.44;4899291;29;20045;-78
2021/08/10 08:16:08;;;;;;;6.70;2.28;;;;;;;26.05;38.78;100269.63;4897455;29;20128;-79
2021/08/10 08:18:35;;;;;;;2.85;2.08;;;;;;;26.09;38.99;100282.41;4898058;29;20044;-79
2021/08/10 08:21:03;;;;;;;5.70;2.85;;;;;;;25.99;39.05;100239.06;4898051;29;20052;-79
2021/08/10 08:23:37;;;;;;;4.50;2.45;;;;;;;26.22;39.19;100198.19;4897547;29;20049;-78
2021/08/10 08:26:08;;;;;;;4.80;2.63;;;;;;;26.18;38.92;100240.47;4897902;29;20500;-79
2021/08/10 08:28:38;;;;;;;20.45;3.55;;;;;;;26.25;38.70;100243.25;4897450;29;20056;-78
2021/08/10 08:31:06;;;;;;;5.38;2.60;;;;;;;26.27;38.89;100268.78;4897432;29;20072;-79
2021/08/10 08:33:33;;;;;;;4.82;2.75;;;;;;;26.03;39.36;100272.44;4897287;29;20495;-79
2021/08/10 08:36:00;;;;;;;8.85;3.25;;;;;;;26.35;39.29;100258.03;4897860;29;20408;-80
2021/08/10 08:38:28;;;;;;;6.05;2.33;;;;;;;26.46;38.98;100270.16;4897585;29;20053;-78
2021/08/10 08:40:54;;;;;;;6.93;2.63;;;;;;;26.56;38.77;100260.06;4897638;29;20037;-79
2021/08/10 08:43:22;;;;;;;7.65;2.75;;;;;;;26.33;39.09;100267.25;4897222;29;20053;-80
2021/08/10 08:45:52;;;;;;;6.47;2.63;;;;;;;26.46;39.21;100266.66;4899010;29;20053;-80
2021/08/10 08:48:24;;;;;;;6.22;3.08;;;;;;;26.42;38.82;100287.59;4897559;29;20457;-80
2021/08/10 08:50:52;;;;;;;6.28;3.55;;;;;;;26.15;39.09;100264.84;4897300;29;20411;-80
2021/08/10 08:53:20;;;;;;;5.95;2.78;;;;;;;26.26;39.09;100243.09;4897438;29;20104;-80
2021/08/10 08:55:47;;;;;;;4.50;2.67;;;;;;;26.24;39.20;100230.91;4897030;29;20116;-79
2021/08/10 08:58:19;;;;;;;5.40;2.20;;;;;;;26.49;38.88;100224.38;4897497;29;20063;-81
2021/08/10 09:00:46;;;;;;;5.13;2.40;;;;;;;26.79;38.59;100216.41;4896996;29;20082;-80
2021/08/10 09:03:13;;;;;;;4.75;3.00;;;;;;;26.93;38.17;100226.31;4898559;29;20079;-80
2021/08/10 09:05:44;;;;;;;6.88;2.35;;;;;;;27.03;38.38;100234.88;4896735;29;20048;-79
2021/08/10 09:08:34;;;;;;;9.27;2.58;;;;;;;26.99;38.21;100240.78;4897142;29;20420;-80
2021/08/10 09:11:15;;;;;;;7.95;2.75;;;;;;;27.02;38.98;100233.22;4896757;29;20045;-79
2021/08/10 09:14:00;;;;;;;6.28;2.92;;;;;;;27.07;38.82;100225.53;4897106;29;20052;-80
2021/08/10 09:16:32;;;;;;;3.65;1.80;;;;;;;27.03;38.94;100242.09;4896871;29;20045;-78
2021/08/10 09:19:01;;;;;;;5.45;2.20;;;;;;;26.82;38.62;100257.00;4897275;29;20041;-79
2021/08/10 09:21:28;;;;;;;7.18;2.90;;;;;;;27.04;38.92;100257.94;4896651;29;20127;-78
2021/08/10 09:24:11;;;;;;;3.55;2.47;;;;;;;27.01;38.63;100255.66;4896822;29;20047;-80
2021/08/10 09:26:40;;;;;;;5.38;3.25;;;;;;;27.13;38.61;100258.72;4896674;29;20049;-80
2021/08/10 09:29:12;;;;;;;10.50;2.83;;;;;;;27.10;38.68;100257.25;4896820;29;20395;-80
2021/08/10 09:31:40;;;;;;;6.90;2.22;;;;;;;26.96;39.39;100262.56;4896846;29;20045;-80
2021/08/10 09:34:24;;;;;;;6.28;2.83;;;;;;;26.66;39.87;100250.97;4896576;29;20108;-79
2021/08/10 09:36:53;;;;;;;9.50;2.63;;;;;;;26.79;39.78;100252.03;4896772;29;20071;-78
2021/08/10 09:39:35;;;;;;;14.65;3.15;;;;;;;27.07;40.13;100254.13;4896295;29;20075;-80
2021/08/10 09:42:08;;;;;;;4.60;2.75;;;;;;;27.19;39.95;100249.13;4896488;29;20041;-78
2021/08/10 09:44:56;;;;;;;12.93;3.78;;;;;;;27.22;39.65;100236.22;4896202;29;20448;-79
2021/08/10 09:47:39;;;;;;;10.20;3.65;;;;;;;27.28;39.84;100237.34;4896865;29;20052;-80
2021/08/10 09:50:18;;;;;;;7.93;3.03;;;;;;;27.13;40.39;100240.84;4896486;29;20100;-81
2021/08/10 09:52:46;;;;;;;4.68;2.45;;;;;;;27.11;40.53;100229.50;4896617;29;20067;-79
2021/08/10 09:55:14;;;;;;;12.30;4.35;;;;;;;27.13;40.56;100227.47;4896110;29;20041;-79
2021/08/10 09:57:57;;;;;;;7.22;3.50;;;;;;;27.22;40.58;100230.03;4896291;29;20048;-79
2021/08/10 10:00:42;;;;;;;7.10;3.75;;;;;;;27.02;40.10;100229.72;4895953;29;20315;-78
2021/08/10 10:03:23;;;;;;;5.15;2.90;;;;;;;26.98;40.72;100228.44;4896485;29;20499;-78
2021/08/10 10:06:01;;;;;;;3.95;2.92;;;;;;;27.49;39.50;100223.19;4896134;29;20045;-78
2021/08/10 10:08:30;;;;;;;5.82;2.55;;;;;;;27.53;39.64;100225.28;4896391;29;20044;-78
2021/08/10 10:10:59;;;;;;;6.70;3.00;;;;;;;27.33;40.04;100224.22;4895898;29;20044;-78
2021/08/10 10:13:32;;;;;;;4.40;3.13;;;;;;;27.25;40.20;100225.13;4896495;29;20456;-78
2021/08/10 10:15:59;;;;;;;8.20;2.55;;;;;;;27.61;39.05;100227.88;4897131;29;20068;-78
2021/08/10 10:18:27;;;;;;;4.63;2.70;;;;;;;27.50;39.63;100232.88;4897688;29;20063;-79
2021/08/10 10:20:54;;;;;;;9.45;3.22;;;;;;;27.45;39.82;100224.56;4897342;29;20052;-79
2021/08/10 10:23:27;;;;;;;3.55;2.53;;;;;;;27.56;39.36;100208.84;4897405;29;20036;-80
2021/08/10 10:25:55;;;;;;;8.88;2.85;;;;;;;27.73;38.58;100208.66;4892264;29;20848;-79
2021/08/10 10:28:23;;;;;;;6.78;2.92;;;;;;;27.88;38.09;100212.13;4887086;29;20049;-79
2021/08/10 10:30:50;;;;;;;4.30;3.13;;;;;;;27.56;37.58;100221.41;4893508;29;20369;-80
2021/08/10 10:33:17;;;;;;;6.30;2.67;;;;;;;27.76;38.23;100205.63;4896749;29;20100;-80
2021/08/10 10:35:45;;;;;;;5.32;3.00;;;;;;;27.88;38.30;100204.09;4897016;29;20053;-79
2021/08/10 10:38:13;;;;;;;3.88;2.92;;;;;;;27.96;38.12;100212.00;4896560;29;20039;-79
2021/08/10 10:40:40;;;;;;;3.75;2.88;;;;;;;28.00;38.73;100202.56;4895624;29;20085;-79
2021/08/10 10:43:07;;;;;;;5.25;3.33;;;;;;;28.13;39.46;100213.44;4896424;29;20052;-80
2021/08/10 10:45:40;;;;;;;8.77;2.83;;;;;;;28.20;39.51;100205.44;4896895;29;20092;-80
2021/08/10 10:48:22;;;;;;;12.38;5.00;;;;;;;27.93;39.46;100209.72;4896568;29;20528;-80
2021/08/10 10:51:11;;;;;;;9.75;3.50;;;;;;;27.92;39.20;100197.34;4896857;29;20041;-80
2021/08/10 10:53:40;;;;;;;4.55;3.22;;;;;;;28.11;39.13;100183.28;4899412;29;20040;-79
2021/08/10 10:56:29;;;;;;;10.20;4.18;;;;;;;27.94;39.27;100187.25;4900785;29;20052;-80
2021/08/10 10:59:19;;;;;;;6.93;4.38;;;;;;;27.88;39.39;100191.53;4900209;29;20041;-80
2021/08/10 11:01:46;;;;;;;6.40;3.70;;;;;;;27.90;39.46;100185.97;4900222;29;20072;-79
2021/08/10 11:04:14;;;;;;;8.80;4.63;;;;;;;28.22;39.42;100189.16;4900200;29;20100;-80
2021/08/10 11:06:48;;;;;;;7.03;4.00;;;;;;;28.16;39.48;100185.41;4900700;29;20100;-80
2021/08/10 11:09:36;;;;;;;7.20;3.40;;;;;;;28.04;39.62;100182.41;4900929;29;20036;-80
2021/08/10 11:12:24;;;;;;;8.48;3.22;;;;;;;28.15;39.89;100173.84;4900796;29;20056;-80
2021/08/10 11:14:54;;;;;;;15.25;3.95;;;;;;;28.36;39.34;100185.59;4890414;29;20053;-80
2021/08/10 11:17:21;;;;;;;7.38;3.30;;;;;;;28.26;39.13;100174.34;4900561;29;20421;-80
2021/08/10 11:19:50;;;;;;;10.93;4.50;;;;;;;28.28;39.65;100172.31;4900471;29;20052;-78
2021/08/10 11:22:17;;;;;;;9.45;3.45;;;;;;;28.36;39.12;100169.53;4900136;29;20055;-80
2021/08/10 11:24:52;;;;;;;6.38;4.55;;;;;;;28.06;39.94;100166.97;4900091;29;20135;-80
2021/08/10 11:27:32;;;;;;;9.70;4.05;;;;;;;28.18;39.92;100168.13;4900126;29;20037;-79
2021/08/10 11:30:00;;;;;;;6.63;3.83;;;;;;;28.52;38.81;100157.69;4900321;29;20052;-80
2021/08/10 11:32:47;;;;;;;8.18;4.25;;;;;;;28.52;38.68;100160.38;4899923;29;20044;-80
2021/08/10 11:35:34;;;;;;;5.95;3.50;;;;;;;28.60;38.38;100160.19;4900541;29;20104;-79
2021/08/10 11:38:13;;;;;;;6.63;3.30;;;;;;;28.69;38.05;100151.81;4900013;29;20045;-79
2021/08/10 11:40:55;;;;;;;6.97;3.72;;;;;;;28.69;37.96;100154.50;4900492;29;20045;-79